Time;durP1;ratioP1;P1;durP2;ratioP2;P2;SDS_P1;SDS_P2;PMS_P1;PMS_P2;Temp;Humidity;BMP_temperature;BMP_pressure;BME280_temperature;BME280_humidity;BME280_pressure;Samples;Min_cycle;Max_cycle;Signal;HPM_P1;HPM_P2
2023/06/22 00:01:55;;;;;;;12.37;11.53;;;20.90;66.90;;;;;;6260022;28;20304;-79
2023/06/22 00:04:58;;;;;;;12.67;11.77;;;20.90;66.90;;;;;;6262403;28;20785;-78
2023/06/22 00:08:04;;;;;;;12.65;11.85;;;20.80;67.20;;;;;;6259568;28;20241;-79
2023/06/22 00:11:07;;;;;;;12.97;11.97;;;20.80;67.20;;;;;;6257589;28;20226;-77
2023/06/22 00:14:10;;;;;;;13.93;12.73;;;20.80;67.30;;;;;;6265676;28;20253;-78
2023/06/22 00:17:15;;;;;;;12.93;12.03;;;20.70;67.40;;;;;;6264591;28;20785;-79
2023/06/22 00:20:18;;;;;;;11.30;10.60;;;20.60;67.50;;;;;;6266860;28;20264;-80
2023/06/22 00:23:23;;;;;;;11.07;10.37;;;20.60;67.50;;;;;;6261498;28;20242;-77
2023/06/22 00:26:26;;;;;;;12.43;11.33;;;20.60;67.60;;;;;;6267016;28;20769;-78
2023/06/22 00:29:29;;;;;;;12.03;11.23;;;20.50;67.70;;;;;;6262110;28;20266;-77
2023/06/22 00:32:34;;;;;;;12.10;11.30;;;20.50;67.70;;;;;;6267621;28;20322;-79
2023/06/22 00:35:37;;;;;;;13.20;12.37;;;20.50;67.90;;;;;;6260627;28;20242;-77
2023/06/22 00:38:41;;;;;;;15.57;14.33;;;20.50;68.10;;;;;;6254899;28;20220;-79
2023/06/22 00:41:44;;;;;;;13.50;12.40;;;20.40;68.40;;;;;;6239615;28;20261;-78
2023/06/22 00:44:47;;;;;;;12.17;11.20;;;20.30;68.60;;;;;;6232736;28;20358;-78
2023/06/22 00:47:52;;;;;;;14.30;13.20;;;20.40;68.50;;;;;;6218285;28;20742;-78
2023/06/22 00:50:55;;;;;;;12.40;11.40;;;20.40;68.60;;;;;;6243725;28;20950;-78
2023/06/22 00:53:59;;;;;;;12.10;11.17;;;20.30;68.60;;;;;;6221782;28;20230;-78
2023/06/22 00:57:03;;;;;;;12.60;11.70;;;20.30;68.60;;;;;;6240504;28;20312;-78
2023/06/22 01:00:11;;;;;;;15.20;14.10;;;20.30;68.70;;;;;;6221894;28;20259;-79
2023/06/22 01:03:16;;;;;;;13.00;12.07;;;20.30;69.00;;;;;;6237833;28;20239;-77
2023/06/22 01:06:26;;;;;;;13.43;12.33;;;20.20;69.10;;;;;;6239047;28;20368;-79
2023/06/22 01:09:34;;;;;;;13.23;12.43;;;20.20;69.10;;;;;;6239743;28;20250;-78
2023/06/22 01:12:44;;;;;;;12.53;11.57;;;20.20;69.20;;;;;;6227228;28;20729;-80
2023/06/22 01:15:52;;;;;;;12.00;11.23;;;20.10;69.10;;;;;;6234672;28;20308;-75
2023/06/22 01:19:01;;;;;;;13.40;12.50;;;20.10;69.20;;;;;;6228143;28;20231;-77
2023/06/22 01:22:05;;;;;;;12.80;11.90;;;20.10;69.30;;;;;;6231739;28;20274;-77
2023/06/22 01:25:12;;;;;;;12.10;11.20;;;20.10;69.40;;;;;;6239769;28;20234;-76
2023/06/22 01:28:25;;;;;;;13.40;12.33;;;20.00;69.40;;;;;;6224642;28;20254;-80
2023/06/22 01:31:30;;;;;;;15.37;14.27;;;20.00;69.50;;;;;;6228256;28;20711;-78
2023/06/22 01:34:34;;;;;;;12.30;11.50;;;20.00;69.80;;;;;;6231833;28;20237;-77
2023/06/22 01:37:39;;;;;;;15.77;14.43;;;19.90;70.00;;;;;;6237458;28;20235;-79
2023/06/22 01:40:43;;;;;;;13.97;12.87;;;19.90;70.20;;;;;;6225175;28;20800;-78
2023/06/22 01:43:46;;;;;;;12.13;11.37;;;19.90;70.30;;;;;;6233116;28;20226;-77
2023/06/22 01:46:53;;;;;;;12.50;11.70;;;19.90;70.30;;;;;;6239674;28;20258;-79
2023/06/22 01:49:56;;;;;;;14.80;13.60;;;19.80;70.30;;;;;;6227556;28;20235;-79
2023/06/22 01:53:01;;;;;;;13.17;12.17;;;19.80;70.60;;;;;;6238669;28;20261;-79
2023/06/22 01:56:04;;;;;;;14.63;13.20;;;19.70;70.70;;;;;;6231760;28;20281;-79
2023/06/22 01:59:13;;;;;;;15.47;14.20;;;19.70;70.90;;;;;;6222939;28;20254;-78
2023/06/22 02:02:26;;;;;;;13.47;12.50;;;19.70;71.00;;;;;;6236812;28;20317;-77
2023/06/22 02:05:35;;;;;;;13.80;12.80;;;19.70;71.20;;;;;;6220997;28;20246;-77
2023/06/22 02:08:42;;;;;;;13.87;12.70;;;19.70;71.20;;;;;;6232811;28;20242;-78
2023/06/22 02:11:48;;;;;;;14.63;13.63;;;19.70;71.20;;;;;;6236527;28;20253;-77
2023/06/22 02:14:52;;;;;;;12.27;11.37;;;19.70;71.20;;;;;;6222547;28;20247;-76
2023/06/22 02:17:57;;;;;;;12.50;11.60;;;19.70;71.40;;;;;;6232058;28;20612;-76
2023/06/22 02:21:00;;;;;;;13.57;12.33;;;19.60;71.50;;;;;;6239031;28;20230;-77
2023/06/22 02:24:05;;;;;;;16.07;14.73;;;19.70;71.60;;;;;;6238249;28;20238;-78
2023/06/22 02:27:08;;;;;;;13.33;12.40;;;19.60;71.70;;;;;;6227775;28;20238;-78
2023/06/22 02:30:14;;;;;;;11.93;11.17;;;19.60;71.90;;;;;;6234019;28;20302;-77
2023/06/22 02:33:19;;;;;;;13.03;12.13;;;19.60;71.90;;;;;;6235814;28;20242;-77
2023/06/22 02:36:23;;;;;;;13.60;12.50;;;19.60;71.90;;;;;;6237254;28;20893;-78
2023/06/22 02:39:26;;;;;;;13.80;12.80;;;19.50;71.90;;;;;;6231535;28;20766;-78
2023/06/22 02:42:30;;;;;;;13.47;12.37;;;19.60;72.10;;;;;;6236844;28;20612;-76
2023/06/22 02:45:33;;;;;;;14.03;12.93;;;19.60;72.20;;;;;;6220874;28;20284;-78
2023/06/22 02:48:37;;;;;;;13.67;12.67;;;19.70;72.40;;;;;;6229428;28;20241;-79
2023/06/22 02:51:47;;;;;;;15.43;14.33;;;19.70;72.50;;;;;;6238772;28;20239;-75
2023/06/22 02:54:50;;;;;;;15.27;13.83;;;19.70;72.60;;;;;;6235808;28;20243;-78
2023/06/22 02:57:53;;;;;;;14.17;13.10;;;19.70;72.60;;;;;;6237295;28;20777;-78
2023/06/22 03:00:57;;;;;;;17.33;15.93;;;19.80;72.60;;;;;;6227634;28;20719;-77
2023/06/22 03:04:01;;;;;;;16.47;15.27;;;19.90;72.60;;;;;;6222894;28;20711;-78
2023/06/22 03:07:05;;;;;;;15.43;14.23;;;19.90;72.70;;;;;;6221680;28;20322;-77
2023/06/22 03:10:10;;;;;;;17.47;15.20;;;19.90;72.70;;;;;;6221942;28;20242;-77
2023/06/22 03:13:13;;;;;;;14.33;13.33;;;20.00;72.70;;;;;;6224660;28;20241;-77
2023/06/22 03:16:16;;;;;;;16.07;14.97;;;20.00;72.60;;;;;;6237176;28;20872;-79
2023/06/22 03:19:22;;;;;;;17.87;16.30;;;20.00;72.50;;;;;;6219335;28;20267;-79
2023/06/22 03:22:25;;;;;;;14.50;13.20;;;20.00;72.50;;;;;;6237729;28;20307;-77
2023/06/22 03:25:28;;;;;;;13.70;12.60;;;20.00;72.30;;;;;;6232165;28;20243;-76
2023/06/22 03:28:31;;;;;;;14.00;12.73;;;20.10;72.10;;;;;;6237954;28;20238;-79
2023/06/22 03:31:35;;;;;;;13.40;12.10;;;20.10;72.00;;;;;;6222915;28;20314;-82
2023/06/22 03:34:40;;;;;;;12.83;11.77;;;20.00;71.80;;;;;;6245500;28;20235;-77
2023/06/22 03:37:43;;;;;;;11.50;10.60;;;20.00;71.70;;;;;;6232880;28;20270;-80
2023/06/22 03:40:46;;;;;;;11.30;10.30;;;20.10;71.60;;;;;;6232375;28;20227;-79
2023/06/22 03:43:50;;;;;;;11.53;10.50;;;20.10;71.40;;;;;;6236950;28;20320;-79
2023/06/22 03:46:53;;;;;;;9.30;8.70;;;20.10;71.10;;;;;;6234161;28;20854;-80
2023/06/22 03:49:58;;;;;;;10.43;9.77;;;20.10;70.90;;;;;;6243749;28;20242;-81
2023/06/22 03:53:01;;;;;;;10.03;9.33;;;20.20;70.30;;;;;;6219567;28;20257;-78
2023/06/22 03:56:06;;;;;;;10.93;9.47;;;20.20;69.90;;;;;;6241769;28;20698;-76
2023/06/22 03:59:09;;;;;;;11.47;10.30;;;20.10;69.70;;;;;;6237414;28;20313;-82
2023/06/22 04:02:13;;;;;;;10.63;9.57;;;20.20;69.00;;;;;;6215747;28;20341;-76
2023/06/22 04:05:19;;;;;;;12.57;11.23;;;20.30;69.00;;;;;;6247497;28;20241;-78
2023/06/22 04:08:22;;;;;;;10.23;9.33;;;20.30;68.50;;;;;;6235823;28;20258;-79
2023/06/22 04:11:25;;;;;;;11.63;9.83;;;20.30;68.30;;;;;;6256929;28;20269;-80
2023/06/22 04:14:28;;;;;;;10.20;9.30;;;20.30;68.30;;;;;;6256947;28;20384;-80
2023/06/22 04:17:32;;;;;;;9.43;8.70;;;20.30;68.00;;;;;;6261809;28;20312;-80
2023/06/22 04:20:36;;;;;;;8.33;7.77;;;20.30;67.70;;;;;;6265559;28;20619;-79
2023/06/22 04:23:40;;;;;;;9.10;8.20;;;20.30;67.50;;;;;;6256979;28;20245;-78
2023/06/22 04:26:45;;;;;;;9.20;8.33;;;20.30;67.60;;;;;;6257897;28;20245;-81
2023/06/22 04:29:51;;;;;;;8.57;7.87;;;20.30;67.60;;;;;;6264836;28;20230;-80
2023/06/22 04:32:57;;;;;;;7.40;6.80;;;20.30;67.40;;;;;;6253635;28;20245;-78
2023/06/22 04:36:04;;;;;;;8.43;7.87;;;20.30;67.50;;;;;;6258691;28;20234;-78
2023/06/22 04:39:09;;;;;;;6.67;6.13;;;20.50;67.30;;;;;;6269330;28;20329;-78
2023/06/22 04:42:13;;;;;;;8.13;7.37;;;20.50;67.20;;;;;;6255330;28;20247;-81
2023/06/22 04:45:16;;;;;;;8.37;7.67;;;20.50;66.60;;;;;;6267547;28;20315;-82
2023/06/22 04:48:19;;;;;;;6.53;6.23;;;20.60;65.90;;;;;;6254200;28;20269;-81
2023/06/22 04:51:30;;;;;;;7.80;7.23;;;20.60;65.90;;;;;;6265813;28;20242;-78
2023/06/22 04:54:34;;;;;;;6.47;6.17;;;20.70;65.50;;;;;;6257825;28;20238;-79
2023/06/22 04:57:39;;;;;;;7.03;6.53;;;20.90;65.50;;;;;;6261196;28;20653;-81
2023/06/22 05:00:44;;;;;;;6.37;6.00;;;21.00;65.30;;;;;;6262729;28;20226;-78
2023/06/22 05:03:47;;;;;;;7.23;6.63;;;21.30;65.20;;;;;;6274204;28;20245;-82
2023/06/22 05:06:53;;;;;;;7.40;6.70;;;21.50;64.50;;;;;;6272427;28;20249;-80
2023/06/22 05:09:56;;;;;;;7.33;6.43;;;21.90;63.60;;;;;;6247730;28;20249;-80
2023/06/22 05:12:59;;;;;;;6.07;5.77;;;22.20;62.30;;;;;;6233731;28;20304;-82
2023/06/22 05:16:02;;;;;;;5.80;5.60;;;22.50;61.40;;;;;;6248266;28;20296;-82
2023/06/22 05:19:06;;;;;;;6.90;6.30;;;22.70;61.10;;;;;;6243093;28;20281;-83
2023/06/22 05:22:12;;;;;;;6.37;5.77;;;22.80;60.80;;;;;;6245328;28;20234;-84
2023/06/22 05:25:15;;;;;;;6.80;6.40;;;22.80;61.00;;;;;;6252066;28;20231;-83
2023/06/22 05:28:22;;;;;;;8.53;7.67;;;23.00;60.70;;;;;;6244012;28;20235;-83
2023/06/22 05:31:26;;;;;;;7.70;7.20;;;23.00;60.20;;;;;;6240307;28;20239;-83
2023/06/22 05:34:29;;;;;;;5.93;5.43;;;23.20;60.40;;;;;;6242023;28;20234;-79
2023/06/22 05:37:34;;;;;;;6.67;6.33;;;23.40;60.10;;;;;;6220308;28;20254;-79
2023/06/22 05:40:37;;;;;;;6.70;6.30;;;23.40;60.10;;;;;;6229196;28;20613;-79
2023/06/22 05:43:41;;;;;;;6.37;6.07;;;23.30;60.20;;;;;;6233532;28;20493;-79
2023/06/22 05:46:46;;;;;;;7.17;6.77;;;23.20;60.20;;;;;;6224716;28;20262;-79
2023/06/22 05:49:50;;;;;;;7.30;6.70;;;23.10;60.80;;;;;;6237768;28;20246;-80
2023/06/22 05:52:54;;;;;;;7.17;6.77;;;23.10;61.30;;;;;;6239140;28;20601;-80
2023/06/22 05:55:58;;;;;;;11.03;6.50;;;23.20;61.10;;;;;;6236624;28;20380;-79
2023/06/22 05:59:01;;;;;;;7.00;6.47;;;23.30;61.20;;;;;;6229809;28;20238;-80
2023/06/22 06:02:05;;;;;;;6.97;6.13;;;23.30;60.50;;;;;;6229628;28;20234;-80
2023/06/22 06:05:08;;;;;;;6.37;5.97;;;23.30;59.90;;;;;;6222171;28;20234;-82
2023/06/22 06:08:13;;;;;;;7.63;6.43;;;23.60;59.30;;;;;;6228749;28;20226;-82
2023/06/22 06:11:17;;;;;;;6.47;5.97;;;23.60;58.60;;;;;;6226168;28;20254;-80
2023/06/22 06:14:20;;;;;;;7.67;6.03;;;23.50;59.40;;;;;;6234587;28;20319;-81
2023/06/22 06:17:23;;;;;;;6.03;5.73;;;23.50;59.30;;;;;;6235266;28;20242;-81
2023/06/22 06:20:28;;;;;;;7.27;6.50;;;23.70;59.60;;;;;;6244963;28;20238;-81
2023/06/22 06:23:34;;;;;;;8.23;6.17;;;24.00;58.70;;;;;;6237840;28;20234;-82
2023/06/22 06:26:41;;;;;;;5.43;5.13;;;24.20;57.10;;;;;;6239685;28;20250;-82
2023/06/22 06:29:48;;;;;;;5.43;4.97;;;24.40;56.90;;;;;;6230041;28;20231;-82
2023/06/22 06:32:52;;;;;;;5.67;5.27;;;24.80;56.30;;;;;;6241240;28;20242;-82
2023/06/22 06:36:03;;;;;;;6.50;6.20;;;25.30;56.00;;;;;;6235425;28;20232;-83
2023/06/22 06:39:09;;;;;;;5.80;5.60;;;25.50;55.20;;;;;;6242685;28;20235;-82
2023/06/22 06:42:22;;;;;;;5.53;5.13;;;25.60;55.20;;;;;;6251625;28;20238;-82
2023/06/22 06:45:36;;;;;;;5.90;5.30;;;25.70;55.00;;;;;;6247245;28;20238;-83
2023/06/22 06:48:39;;;;;;;5.70;5.47;;;25.60;55.70;;;;;;6245912;28;20321;-82
2023/06/22 06:51:43;;;;;;;6.13;5.70;;;25.60;55.40;;;;;;6244283;28;20897;-83
2023/06/22 06:55:08;;;;;;;5.93;5.40;;;25.40;55.80;;;;;;6230665;28;20227;-82
2023/06/22 06:58:13;;;;;;;5.70;5.20;;;25.40;55.80;;;;;;6230958;28;20306;-84
2023/06/22 07:01:16;;;;;;;5.97;5.57;;;25.50;55.30;;;;;;6238293;28;20228;-82
2023/06/22 07:04:30;;;;;;;5.23;4.93;;;25.90;55.80;;;;;;6237393;28;20778;-83
2023/06/22 07:07:33;;;;;;;5.70;4.63;;;26.30;54.40;;;;;;6243335;28;20255;-83
2023/06/22 07:15:18;;;;;;;5.03;4.53;;;26.70;53.10;;;;;;6241724;28;20230;-81
2023/06/22 07:18:26;;;;;;;5.17;4.73;;;26.90;51.70;;;;;;6235800;28;20231;-83
2023/06/22 07:21:43;;;;;;;5.70;5.20;;;27.10;51.20;;;;;;6237556;28;20246;-83
2023/06/22 07:28:36;;;;;;;5.23;4.83;;;27.60;50.90;;;;;;6243812;28;20241;-85
2023/06/22 07:31:41;;;;;;;4.33;4.13;;;27.80;50.70;;;;;;6237816;28;20639;-85
2023/06/22 07:42:18;;;;;;;3.87;3.67;;;27.70;48.90;;;;;;6262883;28;20336;-82
2023/06/22 07:45:22;;;;;;;6.33;4.40;;;27.50;50.00;;;;;;6239174;28;20234;-83
2023/06/22 07:48:25;;;;;;;4.37;3.90;;;27.50;49.80;;;;;;6261329;28;20296;-83
2023/06/22 07:51:43;;;;;;;3.50;3.27;;;27.50;49.30;;;;;;6248503;28;20329;-83
2023/06/22 07:55:00;;;;;;;4.37;4.07;;;27.30;49.90;;;;;;6259606;28;20264;-83
2023/06/22 08:01:45;;;;;;;3.83;3.73;;;27.50;48.70;;;;;;6245994;28;20761;-83
2023/06/22 08:04:48;;;;;;;3.97;3.77;;;27.50;47.80;;;;;;6246805;28;20237;-82
2023/06/22 08:07:57;;;;;;;4.13;3.87;;;27.50;47.00;;;;;;6237100;28;20627;-84
2023/06/22 08:11:08;;;;;;;4.17;3.97;;;27.40;47.40;;;;;;6237012;28;20237;-81
2023/06/22 08:14:16;;;;;;;4.20;3.80;;;27.20;47.70;;;;;;6237751;28;20231;-82
2023/06/22 08:17:22;;;;;;;5.67;4.17;;;27.20;48.40;;;;;;6237843;28;20867;-81
2023/06/22 08:20:27;;;;;;;3.60;3.50;;;27.20;47.90;;;;;;6244633;28;20231;-80
2023/06/22 08:26:57;;;;;;;4.60;4.30;;;27.30;48.70;;;;;;6230364;28;20232;-81
2023/06/22 08:30:00;;;;;;;4.67;4.47;;;27.20;47.70;;;;;;6252143;28;20226;-81
2023/06/22 08:33:04;;;;;;;4.90;4.50;;;27.20;47.80;;;;;;6246286;28;20238;-81
2023/06/22 08:36:21;;;;;;;3.60;3.50;;;27.10;47.20;;;;;;6253501;28;20238;-83
2023/06/22 08:39:36;;;;;;;4.13;4.03;;;27.10;47.60;;;;;;6247542;28;20243;-83
2023/06/22 08:46:07;;;;;;;4.70;4.27;;;27.30;47.50;;;;;;6235741;28;20251;-83
2023/06/22 08:49:10;;;;;;;5.47;5.17;;;27.30;49.20;;;;;;6236170;28;20231;-81
2023/06/22 08:52:14;;;;;;;4.80;4.43;;;27.30;49.50;;;;;;6228146;28;20235;-83
2023/06/22 08:55:28;;;;;;;5.07;4.67;;;27.20;50.10;;;;;;6241560;28;20231;-80
2023/06/22 08:58:31;;;;;;;5.00;4.70;;;27.30;49.20;;;;;;6236251;28;20235;-82
2023/06/22 09:08:37;;;;;;;5.43;4.30;;;27.60;48.00;;;;;;6234863;28;20502;-81
2023/06/22 09:12:00;;;;;;;4.97;4.77;;;27.70;48.80;;;;;;6238937;28;20235;-82
2023/06/22 09:18:43;;;;;;;7.70;4.33;;;27.90;49.00;;;;;;6243987;28;20410;-82
2023/06/22 09:21:50;;;;;;;4.80;4.40;;;28.10;48.70;;;;;;6237078;28;20230;-82
2023/06/22 09:24:59;;;;;;;4.57;4.27;;;28.30;48.80;;;;;;6262312;28;20233;-80
2023/06/22 09:28:08;;;;;;;4.27;3.97;;;28.40;48.40;;;;;;6252766;28;20303;-83
2023/06/22 09:31:28;;;;;;;4.23;3.93;;;28.60;48.00;;;;;;6244206;28;20235;-82
2023/06/22 09:34:41;;;;;;;4.35;4.15;;;28.70;46.70;;;;;;6260128;28;20235;-82
2023/06/22 09:37:45;;;;;;;4.65;4.45;;;28.80;46.80;;;;;;6237813;28;20247;-82
2023/06/22 09:40:52;;;;;;;4.35;3.78;;;28.70;45.90;;;;;;6266794;28;20242;-85
2023/06/22 09:44:04;;;;;;;4.57;4.28;;;28.80;46.70;;;;;;6272330;28;20229;-84
2023/06/22 09:47:08;;;;;;;4.50;4.30;;;28.60;46.20;;;;;;6269794;28;20246;-84
2023/06/22 09:50:12;;;;;;;4.45;4.25;;;28.50;46.30;;;;;;6270229;28;20238;-84
2023/06/22 09:53:15;;;;;;;4.82;4.38;;;28.50;46.60;;;;;;6248700;28;20310;-82
2023/06/22 09:56:28;;;;;;;3.95;3.85;;;28.60;47.10;;;;;;6247226;28;20241;-84
2023/06/22 09:59:33;;;;;;;4.90;4.70;;;28.30;47.70;;;;;;6245392;28;20239;-84
2023/06/22 10:02:45;;;;;;;4.60;4.30;;;28.30;48.10;;;;;;6239835;28;20266;-83
2023/06/22 10:05:48;;;;;;;5.28;4.97;;;28.30;48.80;;;;;;6242360;28;20235;-83
2023/06/22 10:08:51;;;;;;;5.13;4.67;;;28.30;47.60;;;;;;6241569;28;20296;-83
2023/06/22 10:11:55;;;;;;;4.93;4.50;;;28.30;48.70;;;;;;6238814;28;20751;-81
2023/06/22 10:15:08;;;;;;;3.83;3.73;;;28.40;47.60;;;;;;6229401;28;20714;-80
2023/06/22 10:18:11;;;;;;;4.70;4.60;;;28.50;47.70;;;;;;6232998;28;20304;-82
2023/06/22 10:21:15;;;;;;;4.43;4.23;;;28.40;47.70;;;;;;6255076;28;20234;-81
2023/06/22 10:24:18;;;;;;;5.03;4.93;;;28.40;47.90;;;;;;6259058;28;20226;-81
2023/06/22 10:27:22;;;;;;;5.18;4.78;;;28.50;48.20;;;;;;6259807;28;20280;-81
2023/06/22 10:30:26;;;;;;;7.20;4.97;;;28.50;48.00;;;;;;6251033;28;20244;-80
2023/06/22 10:33:29;;;;;;;4.60;4.40;;;28.60;47.50;;;;;;6259684;28;20246;-81
2023/06/22 10:36:33;;;;;;;5.00;4.57;;;28.50;47.50;;;;;;6243050;28;20226;-81
2023/06/22 10:39:36;;;;;;;4.88;4.57;;;28.50;48.30;;;;;;6233738;28;20235;-81
2023/06/22 10:42:39;;;;;;;5.05;4.75;;;28.50;48.30;;;;;;6256124;28;20865;-80
2023/06/22 10:45:44;;;;;;;4.55;4.35;;;28.60;48.00;;;;;;6262635;28;20244;-82
2023/06/22 10:48:47;;;;;;;4.95;4.35;;;28.50;47.90;;;;;;6262115;28;20234;-80
2023/06/22 10:51:50;;;;;;;4.05;3.75;;;28.60;47.80;;;;;;6258462;28;20238;-81
2023/06/22 10:54:53;;;;;;;4.40;4.10;;;28.80;47.10;;;;;;6222603;28;20627;-83
2023/06/22 10:57:56;;;;;;;5.22;4.30;;;28.90;47.20;;;;;;6219021;28;20235;-81
2023/06/22 11:01:03;;;;;;;5.25;5.05;;;28.90;46.70;;;;;;6221466;28;20258;-81
2023/06/22 11:04:06;;;;;;;4.67;4.57;;;28.70;46.50;;;;;;6216713;28;20230;-80
2023/06/22 11:07:10;;;;;;;4.90;4.60;;;28.60;47.10;;;;;;6217532;28;20741;-82
2023/06/22 11:10:14;;;;;;;4.83;4.63;;;28.50;47.30;;;;;;6231761;28;20242;-81
2023/06/22 11:13:17;;;;;;;4.70;4.60;;;28.50;47.90;;;;;;6222639;28;20325;-80
2023/06/22 11:16:23;;;;;;;7.43;4.60;;;28.50;46.80;;;;;;6227747;28;20235;-81
2023/06/22 11:19:26;;;;;;;4.85;4.60;;;28.60;46.90;;;;;;6229467;28;20964;-81
2023/06/22 11:22:33;;;;;;;4.10;3.92;;;28.70;47.10;;;;;;6218999;28;20278;-80
2023/06/22 11:25:38;;;;;;;4.03;3.83;;;28.90;47.20;;;;;;6220691;28;20249;-79
2023/06/22 11:28:41;;;;;;;4.75;4.45;;;29.00;46.80;;;;;;6225695;28;20230;-79
2023/06/22 11:31:45;;;;;;;5.22;4.93;;;29.10;45.90;;;;;;6226195;28;20235;-82
2023/06/22 11:34:48;;;;;;;4.32;4.22;;;29.20;45.80;;;;;;6217351;28;20242;-79
2023/06/22 11:37:51;;;;;;;3.65;3.55;;;29.20;45.10;;;;;;6232001;28;20611;-81
2023/06/22 11:40:55;;;;;;;4.22;3.92;;;29.30;45.20;;;;;;6225156;28;20938;-81
2023/06/22 11:43:58;;;;;;;4.20;4.03;;;29.20;45.70;;;;;;6223266;28;20841;-81
2023/06/22 11:47:03;;;;;;;4.05;3.95;;;29.20;45.70;;;;;;6231074;28;20247;-79
2023/06/22 11:50:08;;;;;;;4.65;4.47;;;29.40;45.60;;;;;;6225121;28;20606;-79
2023/06/22 11:53:11;;;;;;;4.88;4.47;;;29.50;45.20;;;;;;6220866;28;20335;-80
2023/06/22 11:56:14;;;;;;;5.05;4.85;;;29.50;45.30;;;;;;6229171;28;20398;-81
2023/06/22 11:59:17;;;;;;;5.07;4.75;;;29.50;45.10;;;;;;6224849;28;20817;-81
2023/06/22 12:02:22;;;;;;;4.53;4.28;;;29.50;45.20;;;;;;6230110;28;20753;-80
2023/06/22 12:05:25;;;;;;;4.97;4.72;;;29.50;45.00;;;;;;6231199;28;21517;-82
2023/06/22 12:08:29;;;;;;;4.88;4.68;;;29.70;44.80;;;;;;6235193;28;20606;-80
2023/06/22 12:11:32;;;;;;;4.70;4.40;;;29.60;44.40;;;;;;6228754;28;20333;-82
2023/06/22 12:14:35;;;;;;;4.00;3.80;;;29.70;44.70;;;;;;6244908;28;20914;-81
2023/06/22 12:17:40;;;;;;;4.22;4.03;;;29.90;44.80;;;;;;6243845;28;20242;-80
2023/06/22 12:20:44;;;;;;;4.50;4.20;;;30.20;45.20;;;;;;6227818;28;20310;-81
2023/06/22 12:23:47;;;;;;;4.78;4.43;;;30.40;44.20;;;;;;6232812;28;20218;-81
2023/06/22 12:26:51;;;;;;;5.00;4.65;;;30.60;43.70;;;;;;6223541;28;20906;-81
2023/06/22 12:29:57;;;;;;;4.43;4.32;;;30.70;44.40;;;;;;6216447;28;20243;-80
2023/06/22 12:33:02;;;;;;;4.82;4.65;;;30.60;43.30;;;;;;6237580;28;20254;-79
2023/06/22 12:36:06;;;;;;;4.60;4.50;;;30.50;43.40;;;;;;6233832;28;20753;-80
2023/06/22 12:39:09;;;;;;;5.07;4.88;;;30.30;44.10;;;;;;6234677;28;20234;-79
2023/06/22 12:42:12;;;;;;;4.53;4.22;;;30.50;44.10;;;;;;6233213;28;20238;-79
2023/06/22 12:45:16;;;;;;;4.30;4.10;;;30.30;43.50;;;;;;6229765;28;20750;-79
2023/06/22 12:48:22;;;;;;;4.55;4.35;;;30.10;44.00;;;;;;6230710;28;20243;-80
2023/06/22 12:51:26;;;;;;;5.45;5.05;;;30.00;44.40;;;;;;6231077;28;20239;-80
2023/06/22 12:54:29;;;;;;;5.60;5.10;;;29.80;44.20;;;;;;6230531;28;20242;-79
2023/06/22 12:57:37;;;;;;;5.43;4.95;;;29.70;44.90;;;;;;6228042;28;20537;-80
2023/06/22 13:00:40;;;;;;;5.70;5.30;;;29.90;45.10;;;;;;6233730;28;20235;-82
2023/06/22 13:03:44;;;;;;;7.00;5.60;;;30.00;44.70;;;;;;6220928;28;20230;-80
2023/06/22 13:06:48;;;;;;;5.03;4.72;;;30.00;44.60;;;;;;6239402;28;20230;-80
2023/06/22 13:09:54;;;;;;;4.90;4.78;;;30.00;44.90;;;;;;6230053;28;20741;-79
2023/06/22 13:13:00;;;;;;;5.28;4.97;;;30.10;44.70;;;;;;6231101;28;20246;-82
2023/06/22 13:16:04;;;;;;;4.45;4.22;;;30.50;45.10;;;;;;6224543;28;20234;-79
2023/06/22 13:19:08;;;;;;;5.15;4.80;;;30.60;44.10;;;;;;6225172;28;20234;-80
2023/06/22 13:22:28;;;;;;;4.82;4.43;;;30.60;44.60;;;;;;6220772;28;20263;-81
2023/06/22 13:25:31;;;;;;;5.00;4.70;;;30.50;44.10;;;;;;6236385;28;20932;-81
2023/06/22 13:28:35;;;;;;;5.72;5.20;;;30.40;44.60;;;;;;6230995;28;20274;-80
2023/06/22 13:31:39;;;;;;;4.70;4.60;;;30.20;44.30;;;;;;6226038;28;20250;-80
2023/06/22 13:34:43;;;;;;;5.97;4.57;;;30.30;44.50;;;;;;6238562;28;20242;-81
2023/06/22 13:37:46;;;;;;;5.25;5.05;;;30.00;44.80;;;;;;6226983;28;20307;-81
2023/06/22 13:40:49;;;;;;;5.93;5.63;;;30.20;44.90;;;;;;6232775;28;20447;-80
2023/06/22 13:43:52;;;;;;;5.82;5.53;;;30.30;44.70;;;;;;6233561;28;20302;-80
2023/06/22 13:46:57;;;;;;;5.53;5.32;;;30.30;44.80;;;;;;6234753;28;20307;-80
2023/06/22 13:50:02;;;;;;;5.28;5.07;;;30.30;45.10;;;;;;6226185;28;20313;-81
2023/06/22 13:53:05;;;;;;;5.20;4.80;;;30.30;44.90;;;;;;6230132;28;20848;-82
2023/06/22 13:56:08;;;;;;;5.55;5.07;;;30.30;44.30;;;;;;6237502;28;20238;-80
2023/06/22 13:59:11;;;;;;;5.82;5.47;;;30.30;45.00;;;;;;6236379;28;20245;-81
2023/06/22 14:02:14;;;;;;;5.15;4.97;;;30.30;44.70;;;;;;6227418;28;20238;-79
2023/06/22 14:05:19;;;;;;;5.68;5.35;;;30.30;44.80;;;;;;6227811;28;20235;-80
2023/06/22 14:08:23;;;;;;;5.95;5.65;;;30.20;44.60;;;;;;6234607;28;20393;-80
2023/06/22 14:11:29;;;;;;;5.63;5.13;;;30.20;45.40;;;;;;6222092;28;20308;-79
2023/06/22 14:14:32;;;;;;;5.70;5.40;;;30.10;45.20;;;;;;6231051;28;20327;-79
2023/06/22 14:17:37;;;;;;;5.22;5.00;;;30.00;44.90;;;;;;6233590;28;20239;-80
2023/06/22 14:20:42;;;;;;;5.95;5.53;;;29.90;45.30;;;;;;6234924;28;20231;-80
2023/06/22 14:23:48;;;;;;;5.28;5.05;;;30.00;45.70;;;;;;6232725;28;20317;-81
2023/06/22 14:26:52;;;;;;;6.97;5.90;;;30.00;45.60;;;;;;6226527;28;20246;-79
2023/06/22 14:29:55;;;;;;;5.72;5.20;;;30.10;45.00;;;;;;6224141;28;20234;-78
2023/06/22 14:32:58;;;;;;;7.18;6.57;;;30.00;44.90;;;;;;6225686;28;20285;-81
2023/06/22 14:36:03;;;;;;;5.88;5.55;;;30.00;45.20;;;;;;6233726;28;20238;-80
2023/06/22 14:39:06;;;;;;;5.75;5.32;;;30.10;45.80;;;;;;6264632;28;20230;-82
2023/06/22 14:42:10;;;;;;;5.72;5.35;;;30.10;45.30;;;;;;6265181;28;20252;-81
2023/06/22 14:45:14;;;;;;;5.28;5.07;;;30.00;45.10;;;;;;6260177;28;20287;-83
2023/06/22 14:48:20;;;;;;;5.72;4.82;;;30.00;45.60;;;;;;6248474;28;20270;-82
2023/06/22 14:51:25;;;;;;;6.07;5.82;;;30.10;46.00;;;;;;6262822;28;20796;-80
2023/06/22 14:54:28;;;;;;;5.50;5.30;;;30.20;45.70;;;;;;6250325;28;20234;-83
2023/06/22 14:57:31;;;;;;;5.65;5.45;;;30.10;45.10;;;;;;6252460;28;20239;-82
2023/06/22 15:00:34;;;;;;;5.53;5.28;;;30.30;45.10;;;;;;6262038;28;20238;-81
2023/06/22 15:03:37;;;;;;;5.75;5.55;;;30.10;44.70;;;;;;6255255;28;20452;-84
2023/06/22 15:06:50;;;;;;;6.35;5.80;;;30.10;45.50;;;;;;6269270;28;20318;-83
2023/06/22 15:09:53;;;;;;;5.82;5.53;;;30.10;45.10;;;;;;6236716;28;20525;-82
2023/06/22 15:12:56;;;;;;;5.07;4.93;;;30.10;45.20;;;;;;6244845;28;20439;-81
2023/06/22 15:16:07;;;;;;;5.25;4.95;;;30.00;45.50;;;;;;6232329;28;20646;-80
2023/06/22 15:19:12;;;;;;;5.45;5.25;;;29.90;45.50;;;;;;6227851;28;20227;-83
2023/06/22 15:22:19;;;;;;;5.75;5.25;;;29.90;45.50;;;;;;6230421;28;20384;-81
2023/06/22 15:25:26;;;;;;;6.47;6.13;;;30.00;45.90;;;;;;6233603;28;20242;-79
2023/06/22 15:28:32;;;;;;;6.20;5.95;;;30.10;45.50;;;;;;6236679;28;20404;-82
2023/06/22 15:31:35;;;;;;;5.72;5.53;;;30.00;45.40;;;;;;6243480;28;20245;-84
2023/06/22 15:34:46;;;;;;;5.18;4.97;;;30.00;45.30;;;;;;6246553;28;20231;-81
2023/06/22 15:37:52;;;;;;;5.53;5.32;;;30.00;45.70;;;;;;6222576;28;20700;-81
2023/06/22 15:40:55;;;;;;;6.07;5.65;;;30.00;45.60;;;;;;6226367;28;20366;-83
2023/06/22 15:43:59;;;;;;;6.20;5.80;;;29.90;45.70;;;;;;6235213;28;20765;-82
2023/06/22 15:47:06;;;;;;;6.13;5.82;;;29.70;45.70;;;;;;6238632;28;20838;-79
2023/06/22 15:50:11;;;;;;;6.20;5.90;;;29.80;45.90;;;;;;6232445;28;20233;-83
2023/06/22 15:53:15;;;;;;;5.70;5.47;;;29.90;45.90;;;;;;6233899;28;20322;-81
2023/06/22 15:56:20;;;;;;;5.55;5.25;;;29.90;45.80;;;;;;6244407;28;20246;-83
2023/06/22 15:59:27;;;;;;;7.25;6.75;;;29.90;46.00;;;;;;6234487;28;20238;-80
2023/06/22 16:02:30;;;;;;;5.60;5.30;;;29.70;46.20;;;;;;6240600;28;20243;-81
2023/06/22 16:05:34;;;;;;;6.82;6.40;;;29.50;46.50;;;;;;6273714;28;20226;-83
2023/06/22 16:08:38;;;;;;;6.30;5.90;;;29.30;46.60;;;;;;6273706;28;20256;-81
2023/06/22 16:11:41;;;;;;;6.18;5.80;;;29.10;46.60;;;;;;6267875;28;20238;-82
2023/06/22 16:14:51;;;;;;;6.47;6.03;;;29.20;47.10;;;;;;6271508;28;20290;-80
2023/06/22 16:17:54;;;;;;;6.38;5.97;;;29.50;46.70;;;;;;6254497;28;20285;-81
2023/06/22 16:20:58;;;;;;;6.20;5.80;;;29.60;46.50;;;;;;6266928;28;20233;-81
2023/06/22 16:24:02;;;;;;;6.40;6.07;;;29.70;46.20;;;;;;6256877;28;21030;-81
2023/06/22 16:27:06;;;;;;;20.77;6.35;;;29.50;47.10;;;;;;6257625;28;20766;-84
2023/06/22 16:30:11;;;;;;;6.95;6.53;;;29.50;46.60;;;;;;6264731;28;20295;-79
2023/06/22 16:33:14;;;;;;;7.25;6.75;;;29.30;46.70;;;;;;6261981;28;20326;-81